Time;durP1;ratioP1;P1;durP2;ratioP2;P2;SDS_P1;SDS_P2;PMS_P1;PMS_P2;Temp;Humidity;BMP_temperature;BMP_pressure;BME280_temperature;BME280_humidity;BME280_pressure;Samples;Min_cycle;Max_cycle;Signal;HPM_P1;HPM_P2
2022/01/09 00:01:31;;;;;;;1.20;1.20;;;;;;;4.83;93.11;98715.94;5056514;28;20027;-89
2022/01/09 00:04:02;;;;;;;1.80;1.70;;;;;;;4.81;93.78;98719.44;5055778;28;20025;-88
2022/01/09 00:09:04;;;;;;;2.28;2.10;;;;;;;4.78;94.18;98740.94;5062561;22;20103;-88
2022/01/09 00:11:29;;;;;;;3.15;2.10;;;;;;;4.78;93.65;98749.47;5055768;28;20433;-88
2022/01/09 00:13:56;;;;;;;3.78;2.70;;;;;;;4.78;94.88;98767.44;5055462;28;20064;-89
2022/01/09 00:16:22;;;;;;;5.40;3.17;;;;;;;4.82;95.06;98782.81;5039980;28;20071;-89
2022/01/09 00:18:49;;;;;;;4.18;3.40;;;;;;;4.82;95.15;98790.53;5035095;28;20541;-88
2022/01/09 00:21:15;;;;;;;4.32;3.60;;;;;;;4.84;95.63;98809.31;5035678;28;20068;-89
2022/01/09 00:23:41;;;;;;;6.18;3.90;;;;;;;4.83;95.24;98811.03;5035824;28;20056;-89
2022/01/09 00:26:07;;;;;;;4.80;3.58;;;;;;;4.81;95.01;98824.81;5035698;28;20427;-89
2022/01/09 00:28:33;;;;;;;4.32;3.03;;;;;;;4.81;94.41;98828.22;5035313;28;20025;-87
2022/01/09 00:31:01;;;;;;;5.82;3.00;;;;;;;4.81;93.55;98846.19;5034584;28;20033;-87
2022/01/09 00:33:27;;;;;;;5.60;2.78;;;;;;;4.84;93.44;98843.56;5035202;28;20028;-88
2022/01/09 00:35:53;;;;;;;5.88;2.70;;;;;;;4.82;93.58;98847.06;5035059;28;20029;-88
2022/01/09 00:38:19;;;;;;;6.70;2.60;;;;;;;4.75;93.33;98848.94;5034871;28;20013;-87
2022/01/09 00:40:45;;;;;;;9.40;2.50;;;;;;;4.75;92.78;98866.91;5035260;28;20021;-88
2022/01/09 00:43:10;;;;;;;7.80;2.60;;;;;;;4.73;92.74;98869.50;5040323;28;20016;-88
2022/01/09 00:45:40;;;;;;;6.90;2.67;;;;;;;4.73;93.21;98876.38;5054837;28;20029;-88
2022/01/09 00:48:06;;;;;;;8.40;2.50;;;;;;;4.70;93.10;98879.88;5055359;28;20040;-88
2022/01/09 00:50:33;;;;;;;11.70;2.90;;;;;;;4.72;93.03;98896.09;5055057;28;20032;-87
2022/01/09 00:52:59;;;;;;;15.80;3.47;;;;;;;4.66;93.38;98890.25;5054668;28;20025;-87
2022/01/09 00:55:24;;;;;;;16.73;3.40;;;;;;;4.64;93.51;98895.41;5055256;28;20035;-89
2022/01/09 00:57:49;;;;;;;15.88;3.15;;;;;;;4.61;93.23;98903.22;5054564;28;20063;-88
2022/01/09 01:00:23;;;;;;;21.20;4.00;;;;;;;4.61;92.23;98909.19;5054633;28;20052;-86
2022/01/09 01:02:49;;;;;;;21.40;3.75;;;;;;;4.60;91.70;98911.78;5054350;28;20068;-87
2022/01/09 01:05:14;;;;;;;18.52;3.17;;;;;;;4.59;90.66;98930.66;5054331;28;20032;-81
2022/01/09 01:07:40;;;;;;;18.05;3.40;;;;;;;4.58;90.70;98936.66;5058967;28;20044;-87
2022/01/09 01:10:06;;;;;;;16.15;3.08;;;;;;;4.55;90.56;98939.28;5054636;28;20071;-86
2022/01/09 01:12:32;;;;;;;20.63;4.03;;;;;;;4.53;91.02;98951.31;5053902;28;20424;-87
2022/01/09 01:14:57;;;;;;;16.40;3.33;;;;;;;4.50;91.45;98954.81;5053714;28;20033;-87
2022/01/09 01:17:24;;;;;;;23.90;3.95;;;;;;;4.45;91.71;98954.06;5054096;28;20021;-87
2022/01/09 01:19:55;;;;;;;20.30;3.60;;;;;;;4.44;91.72;98966.06;5053267;28;20090;-87
2022/01/09 01:22:20;;;;;;;20.15;3.53;;;;;;;4.43;91.94;98972.06;5054145;28;20099;-87
2022/01/09 01:24:46;;;;;;;18.55;3.78;;;;;;;4.41;92.38;98967.84;5054096;28;20052;-88
2022/01/09 01:27:13;;;;;;;15.70;3.20;;;;;;;4.46;91.73;98979.72;5053140;28;20017;-87
2022/01/09 01:29:38;;;;;;;15.00;3.00;;;;;;;4.48;92.53;98985.69;5054117;28;20048;-87
2022/01/09 01:32:05;;;;;;;17.63;3.00;;;;;;;4.49;92.67;98989.09;5053919;28;20072;-88
2022/01/09 01:34:33;;;;;;;19.08;3.35;;;;;;;4.51;92.68;98996.75;5053623;28;20083;-90
2022/01/09 01:37:00;;;;;;;20.30;3.92;;;;;;;4.48;91.27;98989.97;5053982;28;20033;-87
2022/01/09 01:39:26;;;;;;;15.38;3.50;;;;;;;4.50;89.93;99010.50;5054025;28;20017;-87
2022/01/09 01:41:51;;;;;;;18.08;3.40;;;;;;;4.55;89.70;99006.97;5062854;28;20043;-88
2022/01/09 01:44:16;;;;;;;20.38;3.65;;;;;;;4.52;90.45;99013.84;5073852;28;20020;-89
2022/01/09 01:46:42;;;;;;;19.20;3.65;;;;;;;4.57;90.67;99030.88;5073708;28;20056;-87
2022/01/09 01:49:19;;;;;;;18.35;3.45;;;;;;;4.58;91.26;99036.88;5073835;28;20021;-88
2022/01/09 01:51:47;;;;;;;19.83;3.72;;;;;;;4.53;91.64;99039.53;5072186;28;20028;-89
2022/01/09 01:54:25;;;;;;;18.13;3.38;;;;;;;4.55;91.72;99048.06;5074160;28;20029;-88
2022/01/09 01:56:51;;;;;;;18.92;3.25;;;;;;;4.57;91.39;99056.56;5073398;28;20103;-89
2022/01/09 01:59:35;;;;;;;20.00;3.78;;;;;;;4.58;90.97;99054.88;5073821;28;20525;-89
2022/01/09 02:02:00;;;;;;;23.45;3.90;;;;;;;4.58;90.95;99065.13;5073026;28;20115;-88
2022/01/09 02:04:38;;;;;;;21.50;3.88;;;;;;;4.55;91.30;99063.47;5073710;28;20155;-88
2022/01/09 02:07:05;;;;;;;21.23;3.78;;;;;;;4.60;91.14;99076.25;5072910;28;20075;-88
2022/01/09 02:09:30;;;;;;;14.68;3.35;;;;;;;4.61;91.60;99086.47;5073183;28;20033;-87
2022/01/09 02:12:13;;;;;;;18.00;3.55;;;;;;;4.58;91.37;99076.25;5073239;28;20024;-88
2022/01/09 02:14:42;;;;;;;17.30;3.60;;;;;;;4.64;91.42;99096.69;5073385;28;20119;-88
2022/01/09 02:17:21;;;;;;;14.20;3.72;;;;;;;4.61;91.51;99107.03;5073109;28;20493;-88
2022/01/09 02:20:06;;;;;;;17.70;3.83;;;;;;;4.61;91.42;99095.91;5073278;28;20044;-88
2022/01/09 02:22:34;;;;;;;20.30;3.92;;;;;;;4.64;91.44;99106.97;5068345;28;20055;-87
2022/01/09 02:25:00;;;;;;;19.58;4.03;;;;;;;4.62;91.96;99113.88;5070363;28;20063;-89
2022/01/09 02:27:43;;;;;;;21.35;4.20;;;;;;;4.64;91.35;99108.69;5073852;28;20068;-89
2022/01/09 02:30:20;;;;;;;20.08;4.10;;;;;;;4.63;91.43;99118.13;5064260;28;20079;-89
2022/01/09 02:32:46;;;;;;;18.10;3.88;;;;;;;4.65;91.42;99128.38;5053292;28;20029;-89
2022/01/09 02:35:25;;;;;;;20.15;4.15;;;;;;;4.66;91.15;99126.66;5053427;28;20032;-89
2022/01/09 02:37:50;;;;;;;19.50;3.85;;;;;;;4.72;91.03;99140.25;5052000;28;20068;-89
2022/01/09 02:40:15;;;;;;;16.35;3.67;;;;;;;4.67;91.08;99134.34;5053362;28;20064;-89
2022/01/09 02:42:51;;;;;;;20.52;3.80;;;;;;;4.73;90.38;99141.91;5053365;28;20025;-87
2022/01/09 02:45:20;;;;;;;22.65;3.95;;;;;;;4.72;90.21;99147.09;5053022;28;20489;-90
2022/01/09 02:47:51;;;;;;;17.13;3.85;;;;;;;4.74;90.11;99161.59;5045322;28;20401;-87
2022/01/09 02:50:42;;;;;;;17.98;4.00;;;;;;;4.74;90.05;99163.34;5053625;28;20544;-89
2022/01/09 02:53:33;;;;;;;16.73;3.65;;;;;;;4.73;89.79;99170.19;5055248;28;20358;-90
2022/01/09 02:56:05;;;;;;;15.85;3.53;;;;;;;4.71;90.29;99182.25;5061423;28;20025;-90
2022/01/09 02:58:39;;;;;;;15.20;3.08;;;;;;;4.71;89.98;99189.94;5076742;28;20043;-89
2022/01/09 03:01:16;;;;;;;17.33;3.40;;;;;;;4.67;89.44;99185.72;5077272;28;20066;-88
2022/01/09 03:03:42;;;;;;;16.98;3.30;;;;;;;4.71;89.66;99202.81;5076851;28;20017;-89
2022/01/09 03:06:15;;;;;;;16.63;3.35;;;;;;;4.67;88.74;99201.16;5076601;28;20036;-90
2022/01/09 03:08:49;;;;;;;18.75;3.60;;;;;;;4.67;89.13;99208.03;5079153;28;20056;-89
2022/01/09 03:11:28;;;;;;;16.10;3.45;;;;;;;4.64;89.26;99202.06;5077343;28;20424;-90
2022/01/09 03:13:53;;;;;;;17.13;3.20;;;;;;;4.68;89.32;99217.41;5069591;28;20537;-87
2022/01/09 03:16:22;;;;;;;19.55;3.42;;;;;;;4.70;89.54;99234.50;5057201;28;20048;-88
2022/01/09 03:18:56;;;;;;;18.30;3.20;;;;;;;4.64;89.40;99229.47;5057282;28;20021;-89
2022/01/09 03:21:36;;;;;;;16.67;3.53;;;;;;;4.65;89.39;99238.88;5056235;28;20025;-90
2022/01/09 03:24:12;;;;;;;14.18;3.30;;;;;;;4.61;89.15;99250.09;5057207;28;20103;-90
2022/01/09 03:26:43;;;;;;;12.93;2.70;;;;;;;4.66;89.23;99268.84;5056848;28;20095;-90
2022/01/09 03:29:14;;;;;;;11.68;2.83;;;;;;;4.60;89.24;99256.94;5057234;28;20108;-90
2022/01/09 03:31:39;;;;;;;13.32;2.80;;;;;;;4.61;89.23;99268.91;5056613;28;20127;-89
2022/01/09 03:34:10;;;;;;;12.98;2.80;;;;;;;4.57;89.00;99272.41;5056808;28;20044;-89
2022/01/09 03:36:57;;;;;;;15.85;3.20;;;;;;;4.57;88.28;99277.53;5056535;28;20028;-90
2022/01/09 03:39:43;;;;;;;;;;;;;;;4.60;88.51;99281.81;5057268;28;20029;-89
2022/01/09 03:42:17;;;;;;;;;;;;;;;4.58;88.30;99301.53;5057624;28;19919;-90
2022/01/09 03:44:43;;;;;;;15.00;2.97;;;;;;;4.53;88.13;99303.31;5056353;28;19959;-90
2022/01/09 03:47:17;;;;;;;13.48;2.88;;;;;;;4.53;87.31;99304.16;5056863;28;20017;-89
2022/01/09 03:49:42;;;;;;;13.52;2.72;;;;;;;4.54;87.59;99312.72;5068306;28;20119;-90
2022/01/09 03:52:27;;;;;;;11.30;3.08;;;;;;;4.49;87.25;99310.22;5076865;28;20045;-90
2022/01/09 03:55:03;;;;;;;14.02;2.97;;;;;;;4.46;86.80;99320.53;5076508;28;20052;-90
2022/01/09 03:57:40;;;;;;;17.08;3.28;;;;;;;4.42;86.80;99327.44;5076499;28;20108;-89
2022/01/09 04:00:23;;;;;;;11.00;3.05;;;;;;;4.42;86.90;99339.44;5076603;28;20031;-89
2022/01/09 04:02:49;;;;;;;11.10;2.78;;;;;;;4.40;86.75;99342.00;5076716;28;20029;-88
2022/01/09 04:05:16;;;;;;;14.43;2.60;;;;;;;4.34;86.60;99342.13;5080907;28;20035;-89
2022/01/09 04:07:41;;;;;;;12.20;2.40;;;;;;;4.32;86.59;99354.13;5079559;28;20052;-90
2022/01/09 04:10:57;;;;;;;17.08;3.35;;;;;;;4.37;86.36;99367.78;5080980;28;20033;-90
2022/01/09 04:14:13;;;;;;;14.77;3.13;;;;;;;4.35;86.79;99390.06;5076572;28;20036;-90
2022/01/09 04:16:38;;;;;;;12.85;2.97;;;;;;;4.25;86.55;99381.59;5076249;28;20044;-91
2022/01/09 04:19:03;;;;;;;9.98;2.40;;;;;;;4.23;86.58;99385.91;5075864;28;20098;-90
2022/01/09 04:21:35;;;;;;;15.02;2.65;;;;;;;4.24;86.19;99379.06;5059306;28;20025;-88
2022/01/09 04:24:00;;;;;;;15.77;2.67;;;;;;;4.23;86.42;99396.19;5055897;28;20020;-90
2022/01/09 04:26:46;;;;;;;8.55;2.20;;;;;;;4.25;85.96;99409.84;5055612;28;20032;-90
2022/01/09 04:29:19;;;;;;;9.40;2.35;;;;;;;4.21;86.51;99418.50;5056088;28;20032;-90
2022/01/09 04:32:03;;;;;;;10.27;2.67;;;;;;;4.12;85.68;99406.59;5055324;28;20025;-91
2022/01/09 04:34:28;;;;;;;12.77;2.67;;;;;;;4.12;85.50;99416.00;5055570;28;20037;-90
2022/01/09 04:37:00;;;;;;;10.40;2.30;;;;;;;4.17;85.93;99427.91;5055845;28;20428;-91
2022/01/09 04:39:38;;;;;;;11.10;2.17;;;;;;;4.13;85.69;99427.97;5055610;28;20024;-90
2022/01/09 04:42:10;;;;;;;11.70;2.60;;;;;;;4.11;86.05;99422.03;5055308;28;20068;-89
2022/01/09 04:44:41;;;;;;;8.55;2.20;;;;;;;4.09;85.85;99434.03;5055701;28;20024;-89
2022/01/09 04:47:11;;;;;;;8.20;2.20;;;;;;;4.12;85.80;99447.69;5055680;28;20087;-88
2022/01/09 04:49:55;;;;;;;14.57;2.92;;;;;;;4.06;84.57;99455.44;5056071;28;20052;-89
2022/01/09 04:52:33;;;;;;;10.60;2.85;;;;;;;4.06;85.23;99459.72;5055368;28;20056;-90
2022/01/09 04:55:13;;;;;;;9.68;2.20;;;;;;;4.14;85.45;99466.50;5055681;28;20379;-90
2022/01/09 04:57:39;;;;;;;11.07;2.40;;;;;;;4.00;85.45;99456.34;5055486;28;20028;-90
2022/01/09 05:00:19;;;;;;;8.50;1.90;;;;;;;4.03;85.35;99473.47;5055466;28;20535;-91
2022/01/09 05:02:45;;;;;;;9.43;2.20;;;;;;;4.01;85.40;99482.88;5055315;28;20029;-90
2022/01/09 05:05:26;;;;;;;12.93;2.30;;;;;;;3.94;85.36;99491.53;5054956;28;20051;-90
2022/01/09 05:08:06;;;;;;;11.75;2.40;;;;;;;3.95;85.79;99491.50;5057040;28;20477;-89
2022/01/09 05:10:32;;;;;;;11.07;2.70;;;;;;;3.95;85.70;99504.34;5058907;28;20037;-91
2022/01/09 05:13:09;;;;;;;7.75;1.90;;;;;;;3.91;85.74;99509.53;5055040;28;20074;-90
2022/01/09 05:15:34;;;;;;;9.32;2.40;;;;;;;3.93;85.93;99512.94;5054525;28;20032;-90
2022/01/09 05:18:03;;;;;;;10.57;2.50;;;;;;;3.98;85.28;99529.13;5055106;28;20147;-90
2022/01/09 05:20:42;;;;;;;8.23;2.22;;;;;;;3.95;85.65;99531.72;5051710;28;20029;-90
2022/01/09 05:23:07;;;;;;;12.10;2.53;;;;;;;3.96;85.46;99541.13;5055193;28;20060;-91
2022/01/09 05:25:45;;;;;;;9.88;2.25;;;;;;;3.94;85.74;99546.28;5055071;28;20488;-90
2022/01/09 05:28:10;;;;;;;7.65;2.10;;;;;;;3.90;85.76;99552.28;5054751;28;20475;-91
2022/01/09 05:30:37;;;;;;;7.50;2.10;;;;;;;3.93;85.45;99566.84;5054752;28;20104;-90
2022/01/09 05:33:02;;;;;;;11.80;2.40;;;;;;;3.92;85.79;99568.53;5054411;28;20470;-91
2022/01/09 05:35:43;;;;;;;6.68;2.05;;;;;;;3.91;85.85;99571.97;5054435;28;20079;-92
2022/01/09 05:38:08;;;;;;;7.78;2.60;;;;;;;3.85;85.79;99572.88;5055413;28;20028;-88
2022/01/09 05:40:46;;;;;;;7.00;2.00;;;;;;;3.85;85.75;99564.31;5074558;28;20016;-90
2022/01/09 05:43:12;;;;;;;12.20;2.67;;;;;;;3.90;85.77;99582.25;5074576;28;20025;-90
2022/01/09 05:45:46;;;;;;;7.30;2.10;;;;;;;3.88;86.06;99583.97;5074463;28;20032;-91
2022/01/09 05:48:20;;;;;;;11.10;2.75;;;;;;;3.78;86.14;99573.78;5074329;28;20051;-90
2022/01/09 05:51:00;;;;;;;5.40;2.15;;;;;;;3.77;86.21;99584.06;5074365;28;20048;-90
2022/01/09 05:53:25;;;;;;;8.95;2.40;;;;;;;3.78;86.57;99591.75;5074917;28;20424;-90
2022/01/09 05:55:51;;;;;;;10.15;2.40;;;;;;;3.75;86.40;99584.06;5074229;28;20016;-90
2022/01/09 05:58:17;;;;;;;10.43;2.58;;;;;;;3.78;86.27;99589.19;5074058;28;20120;-89
2022/01/09 06:01:03;;;;;;;8.55;2.50;;;;;;;3.71;86.16;99585.81;5074285;28;20028;-89
2022/01/09 06:03:29;;;;;;;7.57;2.55;;;;;;;3.73;86.00;99596.06;5074017;28;20489;-90
2022/01/09 06:06:03;;;;;;;7.20;2.30;;;;;;;3.73;86.46;99605.47;5073725;28;20032;-90
2022/01/09 06:08:43;;;;;;;11.02;2.40;;;;;;;3.76;86.31;99608.03;5077402;28;20049;-89
2022/01/09 06:11:08;;;;;;;9.82;2.30;;;;;;;3.77;86.47;99625.13;5075391;28;20029;-90
2022/01/09 06:13:33;;;;;;;7.35;2.40;;;;;;;3.78;86.74;99621.69;5074204;28;20475;-89
2022/01/09 06:15:58;;;;;;;9.57;2.40;;;;;;;3.75;87.00;99614.88;5073812;28;20078;-90
2022/01/09 06:18:39;;;;;;;5.45;2.00;;;;;;;3.73;86.92;99616.59;5073982;28;20483;-89
2022/01/09 06:21:04;;;;;;;8.70;2.55;;;;;;;3.77;86.85;99623.41;5073937;28;20032;-89
2022/01/09 06:23:39;;;;;;;6.10;1.90;;;;;;;3.73;86.84;99620.88;5073925;28;20111;-90
2022/01/09 06:26:04;;;;;;;8.10;2.20;;;;;;;3.77;86.68;99637.97;5073462;28;20170;-90
2022/01/09 06:28:29;;;;;;;8.00;2.40;;;;;;;3.77;86.81;99640.53;5074161;28;20040;-90
2022/01/09 06:31:09;;;;;;;9.20;2.42;;;;;;;3.76;86.30;99641.41;5073297;28;20103;-88
2022/01/09 06:33:52;;;;;;;12.55;2.78;;;;;;;3.73;86.77;99636.28;5073570;28;20028;-91
2022/01/09 06:36:17;;;;;;;10.88;2.38;;;;;;;3.79;86.43;99647.34;5073897;28;20029;-91
2022/01/09 06:38:43;;;;;;;5.60;1.90;;;;;;;3.82;86.29;99659.31;5073586;28;20129;-90
2022/01/09 06:41:09;;;;;;;8.32;2.38;;;;;;;3.77;86.57;99650.81;5076268;28;20043;-90
2022/01/09 06:43:44;;;;;;;9.77;2.28;;;;;;;3.77;86.80;99654.22;5074207;28;20032;-90
2022/01/09 06:46:09;;;;;;;8.70;2.20;;;;;;;3.75;86.51;99655.94;5074154;28;20043;-90
2022/01/09 06:48:47;;;;;;;11.50;2.60;;;;;;;3.76;86.60;99657.63;5074170;28;20107;-91
2022/01/09 06:51:12;;;;;;;9.93;2.13;;;;;;;3.85;86.57;99683.22;5073901;28;20025;-91
2022/01/09 06:53:50;;;;;;;8.75;2.20;;;;;;;3.77;86.79;99674.75;5073407;28;20027;-91
2022/01/09 06:56:15;;;;;;;8.88;2.35;;;;;;;3.81;86.79;99678.13;5073793;28;20155;-91
2022/01/09 06:58:41;;;;;;;7.05;2.17;;;;;;;3.78;86.56;99678.16;5073781;28;20052;-91
2022/01/09 07:01:12;;;;;;;9.43;2.42;;;;;;;3.72;86.53;99686.72;5073723;28;20040;-91
2022/01/09 07:03:43;;;;;;;10.57;2.40;;;;;;;3.72;86.96;99686.72;5073445;28;20136;-91
2022/01/09 07:06:18;;;;;;;6.82;2.15;;;;;;;3.73;87.00;99695.31;5073600;28;20099;-92
2022/01/09 07:08:43;;;;;;;6.85;2.30;;;;;;;3.76;86.97;99708.13;5081988;28;20033;-90
2022/01/09 07:11:22;;;;;;;6.10;1.98;;;;;;;3.71;87.12;99708.16;5077872;28;20025;-92
2022/01/09 07:13:47;;;;;;;6.00;1.90;;;;;;;3.69;87.12;99708.13;5070096;28;20031;-91
2022/01/09 07:16:12;;;;;;;8.88;1.95;;;;;;;3.73;87.20;99719.25;5073393;28;20025;-90
2022/01/09 07:18:46;;;;;;;7.30;2.10;;;;;;;3.73;87.28;99721.81;5073803;28;20071;-93
2022/01/09 07:21:27;;;;;;;7.35;1.92;;;;;;;3.71;87.26;99729.53;5073812;28;20404;-92
2022/01/09 07:23:58;;;;;;;8.68;1.92;;;;;;;3.64;87.26;99722.72;5073166;28;20020;-91
2022/01/09 07:26:23;;;;;;;4.97;1.83;;;;;;;3.70;87.58;99729.53;5059940;22;20103;-91
2022/01/09 07:28:49;;;;;;;8.15;2.13;;;;;;;3.72;87.23;99738.06;5052684;28;20025;-91
2022/01/09 07:31:14;;;;;;;12.00;2.38;;;;;;;3.70;86.89;99734.66;5053454;28;20040;-92
2022/01/09 07:33:39;;;;;;;10.15;2.05;;;;;;;3.73;86.86;99741.50;5051874;28;20021;-90
2022/01/09 07:36:04;;;;;;;9.85;2.30;;;;;;;3.73;86.89;99750.03;5052780;28;20024;-93
2022/01/09 07:38:30;;;;;;;10.63;2.40;;;;;;;3.71;86.72;99747.47;5053237;28;20043;-88
2022/01/09 07:40:55;;;;;;;7.88;2.03;;;;;;;3.70;86.93;99748.34;5056431;28;20021;-89
2022/01/09 07:43:20;;;;;;;6.82;2.10;;;;;;;3.69;86.69;99759.47;5056690;28;20029;-88
2022/01/09 07:45:48;;;;;;;8.50;1.98;;;;;;;3.61;86.51;99755.22;5056543;28;20029;-90
2022/01/09 07:48:13;;;;;;;8.30;2.40;;;;;;;3.59;86.50;99755.22;5055205;28;20035;-83
2022/01/09 07:50:39;;;;;;;10.27;2.38;;;;;;;3.62;86.54;99769.75;5055951;28;20029;-82
2022/01/09 07:53:04;;;;;;;7.93;2.15;;;;;;;3.64;87.13;99775.75;5055537;28;20025;-81
2022/01/09 07:55:30;;;;;;;8.95;2.13;;;;;;;3.63;87.08;99782.59;5054454;28;20159;-82
2022/01/09 07:57:55;;;;;;;6.43;2.00;;;;;;;3.60;87.00;99780.03;5055432;28;20094;-81
2022/01/09 08:00:20;;;;;;;5.80;1.98;;;;;;;3.59;86.84;99777.47;5055297;28;20029;-82
2022/01/09 08:02:46;;;;;;;9.23;2.15;;;;;;;3.58;86.59;99789.44;5054604;28;20029;-83
2022/01/09 08:05:13;;;;;;;5.35;1.80;;;;;;;3.55;86.72;99787.75;5055049;28;20108;-81
2022/01/09 08:07:39;;;;;;;3.72;1.58;;;;;;;3.53;86.71;99799.72;5054425;28;20367;-81
2022/01/09 08:10:05;;;;;;;4.85;1.70;;;;;;;3.51;86.72;99801.44;5065910;28;20020;-91
2022/01/09 08:12:33;;;;;;;5.90;1.75;;;;;;;3.47;86.64;99802.31;5056204;28;20056;-90
2022/01/09 08:14:59;;;;;;;4.93;1.70;;;;;;;3.46;86.79;99820.25;5054910;28;20557;-88
2022/01/09 08:17:24;;;;;;;8.25;2.00;;;;;;;3.43;86.86;99821.13;5055618;28;20068;-87
2022/01/09 08:19:50;;;;;;;6.50;1.92;;;;;;;3.43;86.63;99821.13;5055066;28;20021;-89
2022/01/09 08:22:15;;;;;;;10.02;2.30;;;;;;;3.45;86.94;99822.00;5056200;28;20024;-92
2022/01/09 08:24:43;;;;;;;5.78;1.95;;;;;;;3.41;87.05;99833.09;5056117;28;20078;-95
2022/01/09 08:27:22;;;;;;;5.35;1.80;;;;;;;3.39;86.89;99834.81;5056133;28;20037;-93
2022/01/09 08:29:51;;;;;;;8.73;1.70;;;;;;;3.38;86.76;99840.78;5054115;28;20074;-93
2022/01/09 08:32:25;;;;;;;6.22;2.13;;;;;;;3.36;86.82;99833.13;5056109;28;20029;-94
2022/01/09 08:34:51;;;;;;;6.50;1.83;;;;;;;3.34;86.77;99837.38;5055476;28;20108;-90
2022/01/09 08:37:16;;;;;;;7.00;1.90;;;;;;;3.37;86.71;99846.81;5082852;22;20187;-89
2022/01/09 08:39:44;;;;;;;5.22;1.65;;;;;;;3.40;86.56;99851.91;5035153;28;20021;-89
2022/01/09 08:42:10;;;;;;;3.83;1.85;;;;;;;3.39;86.53;99848.50;5035056;28;20536;-89
2022/01/09 08:44:36;;;;;;;4.40;1.58;;;;;;;3.40;86.59;99849.34;5034384;28;20018;-88
2022/01/09 08:47:02;;;;;;;6.57;1.90;;;;;;;3.41;87.03;99858.75;5034573;28;20492;-88
2022/01/09 08:49:27;;;;;;;4.43;1.65;;;;;;;3.44;87.35;99863.88;5034893;28;20120;-88
2022/01/09 08:51:54;;;;;;;3.47;1.60;;;;;;;3.45;87.30;99852.78;5033817;28;20164;-89
2022/01/09 08:54:20;;;;;;;;;;;;;;;3.48;87.25;99862.16;5035749;28;20068;-89
2022/01/09 08:56:45;;;;;;;5.47;1.70;;;;;;;3.45;87.36;99862.16;5061550;22;19925;-91
2022/01/09 08:59:12;;;;;;;5.72;1.70;;;;;;;3.45;87.35;99860.47;5054695;28;20032;-90
2022/01/09 09:01:57;;;;;;;4.82;1.70;;;;;;;3.42;87.27;99869.88;5055294;28;20017;-90
2022/01/09 09:04:24;;;;;;;7.40;1.75;;;;;;;3.44;87.54;99876.72;5054651;28;20466;-90
2022/01/09 09:06:52;;;;;;;7.03;1.80;;;;;;;3.50;87.57;99876.69;5056182;28;20032;-91
2022/01/09 09:09:39;;;;;;;6.80;1.70;;;;;;;3.57;87.47;99884.38;5060827;28;20025;-89
2022/01/09 09:12:04;;;;;;;5.05;1.67;;;;;;;3.61;87.13;99879.25;5056670;28;20036;-90
2022/01/09 09:14:30;;;;;;;6.93;1.70;;;;;;;3.69;86.93;99897.19;5055835;28;20116;-89
2022/01/09 09:17:01;;;;;;;4.95;1.50;;;;;;;3.69;86.96;99898.03;5054209;28;20028;-89
2022/01/09 09:19:26;;;;;;;2.05;1.50;;;;;;;3.73;86.89;99906.59;5054173;28;20493;-88
2022/01/09 09:21:58;;;;;;;4.07;1.60;;;;;;;3.77;87.13;99910.03;5055062;28;20025;-90
2022/01/09 09:24:29;;;;;;;8.02;1.80;;;;;;;3.78;86.81;99919.41;5070323;28;20035;-88
2022/01/09 09:27:04;;;;;;;9.43;2.50;;;;;;;3.77;86.75;99915.16;5072907;28;20366;-87
2022/01/09 09:29:35;;;;;;;9.13;2.45;;;;;;;3.75;86.96;99912.56;5074110;28;20568;-88
2022/01/09 09:32:09;;;;;;;6.75;1.90;;;;;;;3.70;87.36;99919.44;5074155;28;20523;-88
2022/01/09 09:34:50;;;;;;;6.85;2.00;;;;;;;3.70;87.43;99924.56;5074196;28;20059;-94
2022/01/09 09:37:26;;;;;;;5.45;1.70;;;;;;;3.62;87.65;99927.16;5075224;28;20193;-92
2022/01/09 09:40:00;;;;;;;4.90;1.70;;;;;;;3.62;87.54;99927.16;5075383;28;20017;-94
2022/01/09 09:42:35;;;;;;;3.20;1.70;;;;;;;3.70;87.88;99939.97;5076395;28;20032;-96
2022/01/09 09:45:04;;;;;;;4.70;1.45;;;;;;;3.73;88.03;99941.66;5076361;28;20036;-94
2022/01/09 09:47:31;;;;;;;1.98;1.17;;;;;;;3.77;88.10;99940.81;5080356;28;20415;-95
2022/01/09 09:50:10;;;;;;;5.50;1.85;;;;;;;3.79;87.80;99939.94;5077345;28;20421;-94
2022/01/09 09:52:42;;;;;;;7.15;1.80;;;;;;;3.88;87.79;99958.75;5067922;28;20032;-94
2022/01/09 09:55:08;;;;;;;5.97;1.58;;;;;;;3.83;87.98;99948.50;5077243;28;20052;-95
2022/01/09 09:58:27;;;;;;;5.17;1.93;;;;;;;3.84;87.81;99948.47;5080319;28;20037;-96
2022/01/09 10:00:58;;;;;;;6.90;2.20;;;;;;;3.93;87.10;99954.47;5052484;28;20283;-93
2022/01/09 10:04:17;;;;;;;8.02;2.08;;;;;;;3.89;86.80;99963.03;5076117;28;20048;-95
2022/01/09 10:06:47;;;;;;;8.30;1.90;;;;;;;3.89;86.67;99966.44;5090500;22;20037;-92
2022/01/09 10:09:19;;;;;;;6.05;1.73;;;;;;;3.95;86.69;99970.69;5098364;28;20054;-94
2022/01/09 10:11:55;;;;;;;7.93;1.90;;;;;;;3.96;86.76;99978.41;5082470;28;20054;-95
2022/01/09 10:14:54;;;;;;;4.70;1.60;;;;;;;4.02;86.90;99972.41;5065736;28;20056;-93
2022/01/09 10:17:36;;;;;;;5.50;1.58;;;;;;;4.05;86.76;99969.84;5055788;28;20036;-94
2022/01/09 10:20:10;;;;;;;5.35;1.50;;;;;;;4.12;86.13;99960.38;5055162;28;20064;-94
2022/01/09 10:22:55;;;;;;;4.25;1.25;;;;;;;4.10;86.30;99967.25;5057625;28;20077;-95
2022/01/09 10:25:39;;;;;;;3.83;1.60;;;;;;;4.17;86.55;99985.19;5056530;28;20043;-94
2022/01/09 10:28:13;;;;;;;4.00;1.50;;;;;;;4.21;86.63;99992.91;5055928;28;20107;-95
2022/01/09 10:30:43;;;;;;;4.28;1.60;;;;;;;4.20;87.04;99993.75;5055812;28;20024;-92
2022/01/09 10:33:13;;;;;;;3.17;1.60;;;;;;;4.19;87.21;99985.22;5074612;28;20040;-94
2022/01/09 10:35:44;;;;;;;4.18;1.33;;;;;;;4.21;87.32;99982.63;5075005;28;20032;-94
2022/01/09 10:38:32;;;;;;;4.57;1.65;;;;;;;4.30;87.61;99996.31;5075157;28;20036;-94
2022/01/09 10:41:05;;;;;;;2.92;1.25;;;;;;;4.42;88.16;100000.53;5073586;28;20020;-92
2022/01/09 10:43:56;;;;;;;2.55;1.30;;;;;;;4.50;88.02;100004.81;5073832;28;20081;-89
2022/01/09 10:46:48;;;;;;;;;;;;;;;;;;;;;
2022/01/09 10:50:03;;;;;;;7.53;1.70;;;;;;;4.55;87.75;99991.09;4966423;28;20052;-90
2022/01/09 10:52:46;;;;;;;5.38;1.80;;;;;;;4.51;87.42;99994.50;5031735;28;20054;-89
2022/01/09 10:55:34;;;;;;;7.07;1.70;;;;;;;4.49;87.83;99988.53;5031792;28;20079;-89
2022/01/09 10:58:28;;;;;;;3.75;2.00;;;;;;;4.50;87.56;100000.50;5031155;28;20041;-89
2022/01/09 11:01:40;;;;;;;2.55;1.52;;;;;;;4.59;87.79;100005.63;5004738;28;20494;-90
2022/01/09 11:06:51;;;;;;;4.57;1.63;;;;;;;4.78;86.63;100015.84;5031418;28;20048;-89
2022/01/09 11:09:17;;;;;;;7.18;2.25;;;;;;;4.78;86.19;100023.53;5040802;28;20021;-91
2022/01/09 11:11:46;;;;;;;7.68;2.00;;;;;;;4.81;86.49;100017.53;5015417;28;20030;-90
2022/01/09 11:14:26;;;;;;;5.65;2.05;;;;;;;4.78;86.18;100008.97;5010678;28;20037;-91
2022/01/09 11:16:53;;;;;;;5.05;1.80;;;;;;;4.81;86.38;100025.25;5057385;28;20029;-89
2022/01/09 11:19:21;;;;;;;6.80;2.10;;;;;;;4.76;85.95;100026.09;5057142;28;20036;-89
2022/01/09 11:22:05;;;;;;;7.00;1.92;;;;;;;4.81;86.16;100028.66;5057202;28;20032;-87
2022/01/09 11:25:11;;;;;;;7.53;2.20;;;;;;;4.78;85.99;100032.09;5057141;28;20025;-89
2022/01/09 11:27:49;;;;;;;5.20;2.03;;;;;;;4.79;86.30;100036.38;5056197;28;20033;-84
2022/01/09 11:30:44;;;;;;;3.08;1.58;;;;;;;4.78;86.14;100042.38;5056542;28;20480;-87
2022/01/09 11:33:43;;;;;;;5.30;1.40;;;;;;;4.79;86.41;100035.50;5056146;28;20024;-87
2022/01/09 11:36:24;;;;;;;2.55;1.50;;;;;;;4.82;86.40;100043.22;5055806;28;20381;-88
2022/01/09 11:39:12;;;;;;;4.68;1.60;;;;;;;4.85;86.52;100040.63;5065674;28;20040;-88
2022/01/09 11:41:39;;;;;;;4.38;1.65;;;;;;;4.86;86.42;100039.78;5077757;28;20032;-89
2022/01/09 11:44:09;;;;;;;6.13;1.70;;;;;;;4.93;86.24;100045.75;5079019;28;20020;-88
2022/01/09 11:47:01;;;;;;;4.65;1.85;;;;;;;5.00;85.57;100042.28;5076982;28;20028;-88
2022/01/09 11:49:28;;;;;;;5.35;1.73;;;;;;;5.15;86.07;100045.63;5077827;28;20144;-88
2022/01/09 11:51:55;;;;;;;8.23;2.15;;;;;;;5.15;84.51;100043.91;5064838;28;20029;-88
2022/01/09 11:54:22;;;;;;;7.97;2.08;;;;;;;5.19;85.03;100052.44;5056236;28;20021;-89
2022/01/09 11:57:06;;;;;;;8.25;2.30;;;;;;;5.20;84.67;100047.31;5056341;28;20031;-89
2022/01/09 11:59:37;;;;;;;10.45;2.50;;;;;;;5.27;83.18;100055.84;5056419;28;20083;-86
2022/01/09 12:02:27;;;;;;;8.90;2.40;;;;;;;5.32;82.36;100059.22;5055975;28;20201;-88
2022/01/09 12:04:54;;;;;;;7.97;2.42;;;;;;;5.32;82.49;100055.81;5055561;28;20037;-88
2022/01/09 12:07:42;;;;;;;6.72;1.98;;;;;;;5.23;80.88;100059.28;5066851;28;20076;-87
2022/01/09 12:10:22;;;;;;;7.00;2.08;;;;;;;5.17;80.46;100072.22;5076861;28;20038;-88